createdAt,value
2018-03-03T00:01:23.902Z,382.00
2018-03-03T00:03:51.335Z,376.05
2018-03-03T00:06:18.770Z,373.08
2018-03-03T00:08:46.234Z,390.98
2018-03-03T00:11:13.666Z,373.60
2018-03-03T00:13:41.089Z,376.27
2018-03-03T00:16:08.542Z,368.65
2018-03-03T00:18:35.995Z,351.37
2018-03-03T00:21:03.419Z,378.75
2018-03-03T00:23:30.851Z,376.00
2018-03-03T00:25:58.300Z,397.70
2018-03-03T00:28:25.739Z,397.77
2018-03-03T00:30:53.170Z,375.27
2018-03-03T00:33:20.618Z,413.33
2018-03-03T00:35:48.056Z,380.80
2018-03-03T00:38:15.494Z,401.95
2018-03-03T00:40:42.935Z,410.65
2018-03-03T00:43:10.374Z,409.13
2018-03-03T00:45:37.803Z,403.40
2018-03-03T00:48:05.247Z,401.87
2018-03-03T00:50:32.682Z,420.27
2018-03-03T00:53:00.131Z,431.85
2018-03-03T00:55:27.575Z,408.05
2018-03-03T00:57:55.022Z,409.37
2018-03-03T01:00:22.454Z,442.17
2018-03-03T01:02:49.901Z,430.87
2018-03-03T01:05:17.350Z,434.60
2018-03-03T01:07:44.786Z,419.25
2018-03-03T01:10:12.218Z,431.02
2018-03-03T01:12:39.693Z,447.60
2018-03-03T01:15:07.122Z,424.20
2018-03-03T01:17:34.554Z,431.40
2018-03-03T01:20:02.041Z,449.38
2018-03-03T01:22:29.471Z,419.45
2018-03-03T01:24:56.916Z,412.48
2018-03-03T01:27:24.371Z,437.92
2018-03-03T01:29:51.812Z,440.15
2018-03-03T01:32:19.248Z,457.33
2018-03-03T01:34:46.704Z,440.42
2018-03-03T02:50:30.157Z,473.65
2018-03-03T02:52:57.593Z,468.95
2018-03-03T02:55:25.035Z,461.77
2018-03-03T02:57:52.469Z,458.62
2018-03-03T03:00:19.905Z,472.00
2018-03-03T03:02:47.341Z,478.27
2018-03-03T03:05:14.778Z,460.80
2018-03-03T03:07:42.214Z,482.67
2018-03-03T03:10:09.658Z,450.70
2018-03-03T03:12:37.094Z,476.30
2018-03-03T03:15:04.546Z,460.20
2018-03-03T03:17:31.982Z,491.65
2018-03-03T03:19:59.417Z,446.77
2018-03-03T03:22:26.853Z,451.52
2018-03-03T03:24:54.290Z,464.08
2018-03-03T03:27:21.718Z,477.15
2018-03-03T03:29:49.166Z,460.70
2018-03-03T03:32:16.593Z,462.62
2018-03-03T03:34:44.035Z,464.35
2018-03-03T03:37:11.482Z,453.55
2018-03-03T03:39:38.922Z,480.58
2018-03-03T03:42:06.351Z,469.45
2018-03-03T03:44:33.793Z,468.63
2018-03-03T03:47:01.237Z,469.08
2018-03-03T03:49:28.685Z,459.52
2018-03-03T03:51:56.125Z,482.70
2018-03-03T03:54:23.553Z,478.17
2018-03-03T03:56:51.007Z,476.42
2018-03-03T03:59:18.442Z,475.65
2018-03-03T04:01:45.871Z,446.12
2018-03-03T04:04:13.330Z,480.83
2018-03-03T04:06:40.753Z,466.92
2018-03-03T04:09:08.189Z,486.10
2018-03-03T04:11:35.630Z,444.17
2018-03-03T04:14:03.057Z,448.00
2018-03-03T04:16:30.489Z,460.13
2018-03-03T04:18:57.938Z,470.45
2018-03-03T04:21:25.366Z,444.10
2018-03-03T04:23:52.807Z,461.25
2018-03-03T04:26:20.256Z,461.83
2018-03-03T04:28:47.689Z,458.20
2018-03-03T04:31:15.137Z,488.20
2018-03-03T04:33:42.578Z,474.42
2018-03-03T04:36:10.019Z,458.60
2018-03-03T04:38:37.467Z,434.85
2018-03-03T04:41:04.901Z,460.02
2018-03-03T04:43:32.348Z,473.88
2018-03-03T04:45:59.810Z,479.90
2018-03-03T04:48:27.246Z,471.98
2018-03-03T04:50:54.684Z,482.75
2018-03-03T04:53:22.130Z,463.73
2018-03-03T04:55:49.566Z,432.70
2018-03-03T04:58:22.927Z,430.85
2018-03-03T05:00:54.898Z,454.45
2018-03-03T05:03:28.929Z,465.00
2018-03-03T05:05:56.371Z,465.33
2018-03-03T05:08:25.653Z,444.75
2018-03-03T05:10:53.088Z,452.17
2018-03-03T05:13:26.066Z,483.38
2018-03-03T05:29:42.934Z,482.10
2018-03-03T05:32:15.907Z,460.42
2018-03-03T05:48:35.191Z,475.17
2018-03-03T05:51:08.227Z,488.27
2018-03-03T05:53:42.235Z,479.35
2018-03-03T05:56:15.183Z,476.70
2018-03-03T06:12:10.726Z,480.80
2018-03-03T06:14:38.172Z,454.83
2018-03-03T06:17:05.615Z,492.90
2018-03-03T06:19:33.058Z,475.15
2018-03-03T06:22:00.495Z,449.30
2018-03-03T06:24:27.938Z,451.50
2018-03-03T06:26:55.379Z,442.10
2018-03-03T06:29:22.830Z,457.80
2018-03-03T06:31:50.258Z,488.50
2018-03-03T06:34:17.689Z,468.75
2018-03-03T06:36:45.147Z,469.35
2018-03-03T06:39:12.573Z,458.12
2018-03-03T06:41:40.024Z,477.55
2018-03-03T06:44:07.470Z,446.50
2018-03-03T06:46:34.906Z,473.88
2018-03-03T06:49:02.333Z,457.77
2018-03-03T06:51:29.778Z,437.25
2018-03-03T06:53:57.219Z,447.33
2018-03-03T06:56:24.648Z,468.85
2018-03-03T06:58:52.098Z,455.00
2018-03-03T07:01:19.535Z,452.23
2018-03-03T07:03:46.963Z,429.05
2018-03-03T07:06:14.414Z,426.35
2018-03-03T07:08:41.851Z,443.52
2018-03-03T07:11:09.281Z,446.48
2018-03-03T07:13:36.738Z,450.77
2018-03-03T07:16:04.174Z,436.67
2018-03-03T07:18:31.615Z,430.73
2018-03-03T07:20:59.062Z,430.52
2018-03-03T07:23:26.500Z,445.50
2018-03-03T07:25:53.982Z,438.48
2018-03-03T07:28:21.421Z,438.08
2018-03-03T07:30:48.841Z,418.98
2018-03-03T07:33:16.282Z,433.95
2018-03-03T07:35:43.718Z,418.83
2018-03-03T07:38:11.489Z,427.92
2018-03-03T07:40:38.932Z,427.73
2018-03-03T07:43:06.375Z,431.35
2018-03-03T07:45:33.814Z,430.15
2018-03-03T07:48:01.266Z,413.87
2018-03-03T07:50:28.705Z,366.40
2018-03-03T07:52:56.139Z,397.33
2018-03-03T07:55:23.579Z,395.77
2018-03-03T07:57:51.011Z,374.67
2018-03-03T08:00:18.461Z,357.33
2018-03-03T08:02:45.898Z,381.40
2018-03-03T08:05:13.335Z,359.70
2018-03-03T08:07:40.783Z,373.27
2018-03-03T08:10:08.212Z,400.02
2018-03-03T08:12:35.659Z,395.23
2018-03-03T08:15:03.086Z,378.30
2018-03-03T08:17:30.512Z,395.92
2018-03-03T08:19:57.944Z,379.98
2018-03-03T08:22:25.379Z,355.33
2018-03-03T08:24:52.822Z,356.35
2018-03-03T08:27:20.258Z,393.75
2018-03-03T08:29:47.694Z,403.77
2018-03-03T08:32:15.173Z,370.65
2018-03-03T08:34:42.577Z,371.02
2018-03-03T08:37:10.027Z,355.83
2018-03-03T08:39:37.451Z,383.77
2018-03-03T08:42:04.883Z,361.75
2018-03-03T08:44:32.331Z,361.50
2018-03-03T08:46:59.758Z,339.05
2018-03-03T08:49:27.181Z,352.33
2018-03-03T08:51:54.621Z,336.87
2018-03-03T08:54:22.061Z,327.98
2018-03-03T08:56:49.490Z,331.87
2018-03-03T08:59:16.918Z,337.33
2018-03-03T09:01:44.370Z,355.10
2018-03-03T09:04:12.203Z,313.08
2018-03-03T09:06:39.634Z,330.17
2018-03-03T09:09:07.115Z,311.50
2018-03-03T09:11:34.558Z,321.55
2018-03-03T09:14:02.002Z,330.40
2018-03-03T09:16:29.446Z,329.15
2018-03-03T09:18:56.890Z,304.52
2018-03-03T09:21:24.331Z,297.70
2018-03-03T09:23:51.757Z,289.48
2018-03-03T09:26:19.206Z,340.83
2018-03-03T09:28:46.639Z,311.30
2018-03-03T09:31:14.070Z,289.87
2018-03-03T09:33:41.502Z,271.95
2018-03-03T09:36:08.939Z,286.73
2018-03-03T09:38:36.366Z,289.87
2018-03-03T09:41:03.830Z,267.80
2018-03-03T09:43:31.267Z,269.40
2018-03-03T09:45:58.690Z,261.48
2018-03-03T09:48:26.136Z,256.05
2018-03-03T09:50:53.553Z,258.67
2018-03-03T09:53:20.986Z,267.05
2018-03-03T09:55:48.438Z,263.52
2018-03-03T09:58:15.867Z,249.88
2018-03-03T10:00:43.302Z,256.58
2018-03-03T10:03:10.742Z,252.50
2018-03-03T10:05:38.166Z,247.57
2018-03-03T10:08:05.599Z,261.02
2018-03-03T10:10:33.042Z,230.18
2018-03-03T10:13:00.470Z,224.35
2018-03-03T10:15:27.862Z,225.80
2018-03-03T10:17:55.345Z,226.23
2018-03-03T10:20:22.776Z,244.15
2018-03-03T10:22:50.206Z,242.73
2018-03-03T10:25:17.638Z,220.37
2018-03-03T10:27:45.072Z,224.62
2018-03-03T10:30:12.518Z,222.37
2018-03-03T10:32:39.941Z,207.52
2018-03-03T10:35:07.371Z,203.12
2018-03-03T10:37:34.810Z,225.98
2018-03-03T10:40:02.239Z,225.43
2018-03-03T10:42:29.667Z,224.43
2018-03-03T10:44:57.123Z,240.35
2018-03-03T10:47:24.562Z,246.95
2018-03-03T10:49:51.997Z,246.48
2018-03-03T10:52:19.445Z,206.40
2018-03-03T10:54:46.920Z,186.00
2018-03-03T10:57:14.350Z,208.38
2018-03-03T10:59:41.793Z,211.43
2018-03-03T11:02:09.232Z,214.93
2018-03-03T11:04:36.667Z,197.02
2018-03-03T11:07:04.090Z,215.60
2018-03-03T11:09:31.546Z,220.18
2018-03-03T11:11:58.978Z,216.57
2018-03-03T11:14:26.418Z,205.57
2018-03-03T11:16:53.862Z,196.23
2018-03-03T11:19:21.282Z,206.30
2018-03-03T11:21:48.715Z,203.18
2018-03-03T11:24:16.162Z,203.20
2018-03-03T11:26:43.586Z,201.00
2018-03-03T11:29:11.034Z,205.35
2018-03-03T11:31:38.474Z,184.52
2018-03-03T11:34:05.918Z,188.75
2018-03-03T11:36:33.349Z,185.37
2018-03-03T11:39:00.775Z,179.03
2018-03-03T11:41:28.207Z,169.70
2018-03-03T11:43:55.646Z,163.33
2018-03-03T11:46:23.071Z,161.67
2018-03-03T11:48:50.702Z,162.33
2018-03-03T11:51:18.135Z,163.60
2018-03-03T11:53:45.558Z,161.37
2018-03-03T11:56:12.973Z,163.97
2018-03-03T11:58:40.419Z,153.80
2018-03-03T12:01:07.838Z,139.23
2018-03-03T12:03:36.020Z,153.50
2018-03-03T12:06:03.450Z,172.33
2018-03-03T12:08:30.881Z,167.10
2018-03-03T12:10:58.319Z,157.83
2018-03-03T12:13:25.734Z,156.37
2018-03-03T12:15:53.174Z,163.37
2018-03-03T12:18:20.617Z,140.73
2018-03-03T12:20:48.046Z,153.93
2018-03-03T12:23:15.482Z,140.43
2018-03-03T12:25:42.929Z,157.33
2018-03-03T12:28:10.368Z,152.80
2018-03-03T12:30:37.812Z,147.63
2018-03-03T12:33:05.234Z,146.70
2018-03-03T12:35:32.723Z,144.60
2018-03-03T12:38:00.146Z,151.20
2018-03-03T12:40:27.562Z,117.37
2018-03-03T12:42:54.997Z,106.67
2018-03-03T12:45:22.439Z,127.87
2018-03-03T12:47:49.890Z,111.73
2018-03-03T12:50:17.314Z,108.53
2018-03-03T12:52:44.757Z,107.03
2018-03-03T12:55:12.166Z,100.83
2018-03-03T12:57:39.591Z,82.53
2018-03-03T13:00:07.034Z,77.73
2018-03-03T13:02:34.449Z,88.43
2018-03-03T13:05:01.894Z,96.80
2018-03-03T13:07:29.322Z,89.37
2018-03-03T13:09:56.751Z,91.97
2018-03-03T13:12:24.174Z,64.83
2018-03-03T13:14:51.602Z,56.30
2018-03-03T13:17:19.123Z,51.57
2018-03-03T13:19:46.557Z,41.67
2018-03-03T13:22:14.026Z,37.03
2018-03-03T13:24:41.403Z,31.43
2018-03-03T13:27:08.839Z,34.77
2018-03-03T13:29:36.255Z,42.40
2018-03-03T13:32:03.685Z,49.20
2018-03-03T13:34:31.113Z,35.93
2018-03-03T13:36:58.521Z,39.10
2018-03-03T13:39:25.962Z,38.53
2018-03-03T13:41:53.375Z,45.70
2018-03-03T13:44:20.790Z,46.53
2018-03-03T13:46:48.308Z,50.20
2018-03-03T13:49:15.723Z,34.33
2018-03-03T13:51:43.175Z,40.83
2018-03-03T13:54:10.590Z,41.83
2018-03-03T13:56:38.018Z,44.23
2018-03-03T13:59:05.446Z,48.03
2018-03-03T14:01:32.866Z,46.37
2018-03-03T14:04:00.319Z,41.97
2018-03-03T14:06:27.741Z,54.43
2018-03-03T14:08:55.167Z,40.93
2018-03-03T14:11:22.604Z,42.20
2018-03-03T14:13:50.030Z,38.77
2018-03-03T14:16:17.449Z,39.47
2018-03-03T14:18:44.882Z,35.20
2018-03-03T14:21:12.301Z,34.67
2018-03-03T14:23:39.726Z,29.27
2018-03-03T14:26:07.166Z,38.60
2018-03-03T14:28:34.591Z,41.37
2018-03-03T14:31:02.076Z,37.87
2018-03-03T14:33:29.463Z,42.67
2018-03-03T14:35:56.882Z,48.13
2018-03-03T14:38:24.307Z,45.13
2018-03-03T14:40:51.786Z,44.03
2018-03-03T14:43:19.166Z,47.83
2018-03-03T14:45:46.596Z,28.10
2018-03-03T14:48:14.030Z,34.07
2018-03-03T14:50:41.461Z,38.87
2018-03-03T14:53:08.882Z,33.87
2018-03-03T14:55:36.323Z,40.93
2018-03-03T14:58:03.745Z,36.07
2018-03-03T15:00:31.186Z,34.53
2018-03-03T15:02:58.607Z,44.23
2018-03-03T15:05:26.035Z,38.60
2018-03-03T15:07:53.470Z,32.97
2018-03-03T15:10:20.899Z,39.23
2018-03-03T15:12:48.327Z,32.70
2018-03-03T15:15:15.771Z,35.10
2018-03-03T15:17:43.205Z,41.57
2018-03-03T15:20:10.657Z,29.43
2018-03-03T15:22:38.083Z,45.53
2018-03-03T15:25:06.471Z,36.70
2018-03-03T15:27:33.883Z,28.90
2018-03-03T15:30:01.297Z,33.53
2018-03-03T15:32:28.735Z,34.47
2018-03-03T15:34:56.158Z,32.03
2018-03-03T15:37:23.570Z,48.53
2018-03-03T15:39:51.014Z,27.40
2018-03-03T15:42:18.430Z,29.23
2018-03-03T15:44:45.854Z,33.60
2018-03-03T15:47:13.287Z,18.63
2018-03-03T15:49:40.740Z,26.17
2018-03-03T15:52:08.158Z,29.87
2018-03-03T15:54:35.587Z,28.20
2018-03-03T15:57:03.019Z,31.70
2018-03-03T15:59:30.443Z,40.40
2018-03-03T16:01:57.882Z,31.33
2018-03-03T16:04:25.306Z,40.83
2018-03-03T16:06:52.734Z,36.70
2018-03-03T16:09:20.151Z,36.13
2018-03-03T16:11:47.584Z,37.10
2018-03-03T16:14:15.005Z,35.80
2018-03-03T16:16:42.426Z,41.50
2018-03-03T16:19:09.858Z,30.00
2018-03-03T16:21:37.288Z,36.30
2018-03-03T16:24:04.698Z,29.13
2018-03-03T16:26:32.130Z,31.77
2018-03-03T16:28:59.553Z,27.97
2018-03-03T16:31:26.970Z,40.83
2018-03-03T16:33:54.411Z,54.27
2018-03-03T16:36:21.834Z,49.83
2018-03-03T16:38:49.259Z,42.73
2018-03-03T16:41:16.690Z,50.07
2018-03-03T16:43:44.119Z,44.43
2018-03-03T16:46:11.558Z,42.27
2018-03-03T16:48:38.996Z,50.73
2018-03-03T16:51:06.415Z,25.67
2018-03-03T16:53:33.843Z,47.77
2018-03-03T16:56:01.285Z,31.07
2018-03-03T16:58:28.702Z,19.87
2018-03-03T17:00:56.142Z,38.97
2018-03-03T17:03:23.587Z,24.23
2018-03-03T17:05:51.010Z,28.27
2018-03-03T17:08:18.435Z,50.30
2018-03-03T17:10:45.875Z,30.70
2018-03-03T17:13:13.302Z,28.57
2018-03-03T17:15:40.726Z,31.03
2018-03-03T17:18:08.162Z,28.03
2018-03-03T17:20:35.583Z,41.70
2018-03-03T17:23:03.012Z,57.50
2018-03-03T17:25:30.447Z,59.37
2018-03-03T17:27:57.862Z,52.00
2018-03-03T17:30:25.300Z,44.10
2018-03-03T17:32:52.739Z,45.12
2018-03-03T17:35:20.156Z,51.43
2018-03-03T17:37:47.595Z,57.03
2018-03-03T17:40:15.015Z,51.03
2018-03-03T17:42:42.438Z,49.90
2018-03-03T17:45:10.111Z,48.63
2018-03-03T17:47:37.626Z,49.63
2018-03-03T17:50:05.055Z,49.20
2018-03-03T17:52:32.580Z,49.90
2018-03-03T17:55:00.120Z,45.72
2018-03-03T17:57:27.537Z,55.70
2018-03-03T17:59:54.974Z,42.07
2018-03-03T18:02:22.660Z,40.08
2018-03-03T18:04:50.253Z,45.95
2018-03-03T18:07:18.334Z,41.67
2018-03-03T18:09:45.803Z,78.68
2018-03-03T18:12:13.400Z,65.22
2018-03-03T18:14:40.996Z,85.17
2018-03-03T18:17:08.430Z,52.83
2018-03-03T18:19:36.639Z,58.63
2018-03-03T18:22:04.070Z,72.37
2018-03-03T18:24:36.423Z,55.85
2018-03-03T18:27:03.863Z,62.53
2018-03-03T18:29:31.344Z,66.60
2018-03-03T18:31:58.789Z,93.65
2018-03-03T18:34:26.372Z,75.12
2018-03-03T18:36:55.074Z,63.80
2018-03-03T18:39:22.548Z,83.73
2018-03-03T18:41:49.938Z,77.00
2018-03-03T18:44:17.365Z,68.30
2018-03-03T18:46:44.813Z,84.28
2018-03-03T18:49:12.250Z,74.00
2018-03-03T18:51:39.679Z,72.85
2018-03-03T18:54:07.133Z,84.82
2018-03-03T18:56:34.562Z,78.22
2018-03-03T18:59:07.659Z,72.03
2018-03-03T19:01:35.114Z,63.13
2018-03-03T19:04:02.541Z,73.67
2018-03-03T19:06:29.951Z,64.03
2018-03-03T19:08:57.382Z,68.77
2018-03-03T19:11:24.803Z,97.27
2018-03-03T19:13:52.224Z,97.57
2018-03-03T19:16:19.673Z,87.65
2018-03-03T19:18:47.107Z,80.43
2018-03-03T19:21:14.544Z,69.40
2018-03-03T19:23:41.970Z,56.00
2018-03-03T19:26:09.435Z,59.97
2018-03-03T19:28:36.864Z,45.37
2018-03-03T19:31:04.297Z,55.15
2018-03-03T19:33:31.747Z,44.63
2018-03-03T19:35:59.187Z,42.67
2018-03-03T19:38:26.627Z,48.28
2018-03-03T19:40:54.058Z,58.38
2018-03-03T19:43:21.527Z,55.42
2018-03-03T19:45:48.966Z,58.53
2018-03-03T19:48:16.402Z,48.95
2018-03-03T19:50:43.835Z,59.92
2018-03-03T19:53:11.275Z,49.80
2018-03-03T19:55:38.702Z,66.15
2018-03-03T19:58:06.143Z,58.67
2018-03-03T20:00:33.592Z,62.45
2018-03-03T20:03:01.023Z,60.17
2018-03-03T20:05:28.471Z,71.30
2018-03-03T20:07:55.903Z,60.67
2018-03-03T20:10:23.335Z,62.97
2018-03-03T20:12:50.781Z,56.83
2018-03-03T20:15:18.224Z,55.65
2018-03-03T20:17:45.660Z,63.90
2018-03-03T20:20:13.103Z,68.70
2018-03-03T20:22:40.535Z,66.82
2018-03-03T20:25:07.963Z,72.10
2018-03-03T20:27:35.407Z,64.05
2018-03-03T20:30:02.799Z,75.50
2018-03-03T20:32:30.263Z,85.60
2018-03-03T20:34:57.699Z,87.43
2018-03-03T20:37:25.127Z,81.63
2018-03-03T20:39:52.571Z,94.43
2018-03-03T20:42:20.014Z,116.12
2018-03-03T20:44:47.458Z,109.65
2018-03-03T20:47:14.897Z,103.97
2018-03-03T20:49:42.340Z,100.70
2018-03-03T20:52:09.776Z,108.65
2018-03-03T20:54:37.223Z,115.75
2018-03-03T20:57:04.657Z,136.48
2018-03-03T20:59:32.115Z,133.15
2018-03-03T21:01:59.545Z,126.68
2018-03-03T21:04:26.981Z,148.38
2018-03-03T21:06:54.435Z,128.93
2018-03-03T21:09:21.870Z,138.57
2018-03-03T21:11:53.892Z,137.52
2018-03-03T21:14:21.345Z,162.55
2018-03-03T21:16:48.785Z,171.40
2018-03-03T21:19:16.223Z,164.82
2018-03-03T21:21:43.700Z,159.68
2018-03-03T21:24:11.131Z,170.00
2018-03-03T21:26:38.540Z,163.10
2018-03-03T21:29:06.144Z,171.75
2018-03-03T21:31:33.562Z,152.40
2018-03-03T21:34:01.015Z,164.37
2018-03-03T21:36:28.458Z,178.20
2018-03-03T21:38:55.915Z,167.82
2018-03-03T21:41:23.354Z,163.35
2018-03-03T21:43:50.793Z,195.68
2018-03-03T21:46:18.247Z,179.50
2018-03-03T21:48:45.687Z,177.87
2018-03-03T21:51:13.129Z,176.77
2018-03-03T21:53:40.574Z,179.55
2018-03-03T21:56:08.019Z,180.65
2018-03-03T21:58:35.664Z,178.85
2018-03-03T22:01:03.099Z,210.20
2018-03-03T22:03:30.543Z,190.10
2018-03-03T22:05:58.000Z,191.00
2018-03-03T22:08:25.439Z,201.68
2018-03-03T22:10:52.892Z,206.40
2018-03-03T22:13:20.339Z,198.82
2018-03-03T22:15:47.784Z,214.55
2018-03-03T22:18:15.244Z,205.40
2018-03-03T22:20:42.691Z,203.85
2018-03-03T22:23:10.139Z,216.40
2018-03-03T22:25:37.584Z,216.80
2018-03-03T22:28:05.031Z,220.52
2018-03-03T22:30:32.467Z,249.68
2018-03-03T22:32:59.916Z,203.18
2018-03-03T22:35:27.401Z,220.73
2018-03-03T22:37:54.839Z,237.93
2018-03-03T22:40:22.278Z,210.25
2018-03-03T22:42:49.710Z,244.75
2018-03-03T22:45:17.169Z,220.48
2018-03-03T22:47:44.608Z,221.00
2018-03-03T22:50:12.043Z,218.95
2018-03-03T22:52:39.485Z,249.27
2018-03-03T22:55:06.931Z,217.55
2018-03-03T22:57:34.366Z,215.15
2018-03-03T23:00:01.815Z,233.35
2018-03-03T23:02:29.267Z,241.45
2018-03-03T23:04:56.706Z,236.25
2018-03-03T23:07:24.139Z,222.82
2018-03-03T23:09:51.584Z,249.15
2018-03-03T23:12:19.023Z,229.87
2018-03-03T23:14:46.462Z,213.43
2018-03-03T23:17:13.914Z,248.75
2018-03-03T23:19:41.354Z,230.45
2018-03-03T23:22:08.811Z,242.30
2018-03-03T23:24:36.247Z,227.60
2018-03-03T23:27:03.684Z,236.75
2018-03-03T23:29:31.143Z,228.32
2018-03-03T23:31:58.580Z,230.68
2018-03-03T23:34:26.011Z,230.75
2018-03-03T23:36:53.467Z,216.10
2018-03-03T23:39:20.911Z,238.00
2018-03-03T23:41:48.355Z,232.37
2018-03-03T23:44:16.024Z,231.75
2018-03-03T23:46:43.459Z,219.35
2018-03-03T23:49:10.927Z,221.27
2018-03-03T23:51:38.371Z,230.68
2018-03-03T23:54:05.831Z,230.15
2018-03-03T23:56:33.266Z,218.30
2018-03-03T23:59:00.758Z,203.77
